Time;durP1;ratioP1;P1;durP2;ratioP2;P2;SDS_P1;SDS_P2;PMS_P1;PMS_P2;Temp;Humidity;BMP_temperature;BMP_pressure;BME280_temperature;BME280_humidity;BME280_pressure;Samples;Min_cycle;Max_cycle;Signal;HPM_P1;HPM_P2
2022/04/06 00:00:10;;;;;;;11.25;3.90;;;16.30;82.10;;;;;;4996238;28;20026;-66
2022/04/06 00:02:38;;;;;;;12.68;3.17;;;16.30;81.70;;;;;;4995867;28;20070;-64
2022/04/06 00:05:04;;;;;;;7.15;2.65;;;16.30;81.10;;;;;;4996246;28;20453;-67
2022/04/06 00:07:30;;;;;;;9.05;3.30;;;16.30;82.00;;;;;;4996188;28;20030;-66
2022/04/06 00:09:55;;;;;;;14.38;2.80;;;16.30;81.40;;;;;;4996052;28;20026;-66
2022/04/06 00:12:21;;;;;;;11.13;2.95;;;16.20;81.10;;;;;;4996081;28;20027;-65
2022/04/06 00:14:47;;;;;;;11.10;3.20;;;16.20;81.10;;;;;;4995705;28;20034;-65
2022/04/06 00:17:13;;;;;;;15.43;3.05;;;16.20;80.90;;;;;;4995976;28;20028;-67
2022/04/06 00:19:39;;;;;;;12.77;3.05;;;16.20;81.20;;;;;;4995958;28;20030;-63
2022/04/06 00:22:05;;;;;;;11.80;2.45;;;16.20;81.30;;;;;;4995799;28;20100;-67
2022/04/06 00:24:31;;;;;;;12.43;3.38;;;16.20;81.50;;;;;;4995802;28;20021;-66
2022/04/06 00:26:57;;;;;;;12.55;3.35;;;16.20;81.20;;;;;;4995455;28;20030;-66
2022/04/06 00:29:22;;;;;;;10.27;2.75;;;16.10;80.50;;;;;;4995819;28;20026;-66
2022/04/06 00:31:48;;;;;;;10.50;2.40;;;16.10;81.50;;;;;;4995316;28;20132;-66
2022/04/06 00:34:14;;;;;;;14.07;3.00;;;16.10;81.30;;;;;;4995581;28;20038;-64
2022/04/06 00:36:39;;;;;;;10.68;2.72;;;16.10;80.90;;;;;;4995606;28;20050;-66
2022/04/06 00:39:05;;;;;;;10.98;2.63;;;16.10;81.10;;;;;;4995462;28;20069;-63
2022/04/06 00:41:30;;;;;;;10.40;3.20;;;16.10;80.60;;;;;;4995416;28;20432;-67
2022/04/06 00:44:28;;;;;;;12.50;2.78;;;16.10;80.90;;;;;;4995388;28;20452;-66
2022/04/06 00:46:54;;;;;;;10.63;3.13;;;16.10;80.80;;;;;;4962023;28;20049;-66
2022/04/06 00:49:20;;;;;;;7.65;2.55;;;16.00;81.10;;;;;;4995291;28;20031;-65
2022/04/06 00:51:47;;;;;;;8.32;2.25;;;16.10;81.50;;;;;;4995169;28;20026;-65
2022/04/06 00:54:20;;;;;;;7.60;2.38;;;16.10;81.80;;;;;;4995350;28;20157;-66
2022/04/06 00:56:46;;;;;;;9.15;2.63;;;16.10;81.50;;;;;;4995391;28;20026;-66
2022/04/06 00:59:12;;;;;;;13.40;2.83;;;16.10;80.80;;;;;;4995499;28;20022;-66
2022/04/06 01:01:39;;;;;;;10.02;2.80;;;16.00;80.70;;;;;;4994682;28;20096;-66
2022/04/06 01:04:05;;;;;;;11.85;2.58;;;16.00;80.20;;;;;;4994943;28;20412;-64
2022/04/06 01:06:30;;;;;;;14.48;2.85;;;16.00;79.80;;;;;;4995029;28;20018;-66
2022/04/06 01:08:56;;;;;;;13.27;2.95;;;16.00;79.90;;;;;;4995093;28;20030;-66
2022/04/06 01:11:23;;;;;;;7.70;2.20;;;16.00;79.10;;;;;;4994803;28;20025;-66
2022/04/06 01:13:51;;;;;;;9.40;2.67;;;16.00;79.80;;;;;;4994823;28;20033;-65
2022/04/06 01:16:17;;;;;;;9.15;3.00;;;16.00;80.60;;;;;;4994350;28;20031;-67
2022/04/06 01:18:42;;;;;;;9.48;2.70;;;15.90;79.80;;;;;;4994841;28;20082;-66
2022/04/06 01:21:11;;;;;;;9.70;2.25;;;15.90;79.40;;;;;;4994811;28;20104;-66
2022/04/06 01:23:38;;;;;;;10.13;2.58;;;15.90;78.30;;;;;;4994571;28;20014;-66
2022/04/06 01:26:04;;;;;;;10.55;2.25;;;15.90;78.60;;;;;;4994434;28;20061;-66
2022/04/06 01:28:29;;;;;;;8.50;2.33;;;15.90;78.80;;;;;;4994605;28;20050;-66
2022/04/06 01:30:55;;;;;;;11.25;2.60;;;15.80;78.00;;;;;;4994438;28;20112;-66
2022/04/06 01:33:21;;;;;;;9.30;2.13;;;15.80;78.20;;;;;;4994686;28;20014;-64
2022/04/06 01:35:47;;;;;;;11.40;2.40;;;15.80;78.20;;;;;;4994515;28;20543;-63
2022/04/06 01:38:13;;;;;;;7.47;1.70;;;15.80;77.10;;;;;;4994284;28;20032;-66
2022/04/06 01:40:39;;;;;;;13.70;2.78;;;15.80;78.30;;;;;;4994725;28;20098;-66
2022/04/06 01:43:04;;;;;;;8.95;2.15;;;15.80;77.30;;;;;;4994059;28;20374;-66
2022/04/06 01:45:30;;;;;;;10.52;2.10;;;15.70;77.70;;;;;;4994094;28;20083;-66
2022/04/06 01:47:55;;;;;;;7.45;1.95;;;15.70;78.30;;;;;;4994141;28;20034;-64
2022/04/06 01:53:05;;;;;;;10.15;1.80;;;15.70;79.40;;;;;;4994467;28;20045;-66
2022/04/06 01:55:30;;;;;;;7.82;2.10;;;15.80;80.00;;;;;;4994236;28;20038;-66
2022/04/06 01:57:56;;;;;;;9.32;2.25;;;15.70;80.80;;;;;;4993673;28;20022;-66
2022/04/06 02:00:22;;;;;;;5.15;1.40;;;15.80;80.50;;;;;;4994266;28;20041;-66
2022/04/06 02:02:51;;;;;;;8.85;2.22;;;15.80;80.70;;;;;;4994122;28;20018;-66
2022/04/06 02:05:17;;;;;;;7.60;1.90;;;15.70;79.00;;;;;;4993991;28;20045;-66
2022/04/06 02:07:42;;;;;;;8.63;2.10;;;15.70;79.40;;;;;;4993887;28;20476;-66
2022/04/06 02:10:09;;;;;;;8.65;2.60;;;15.70;77.70;;;;;;4993883;28;20026;-65
2022/04/06 02:12:35;;;;;;;8.60;2.22;;;15.70;77.40;;;;;;4993401;28;20034;-67
2022/04/06 02:15:01;;;;;;;8.70;1.80;;;15.70;78.90;;;;;;4993518;28;20439;-66
2022/04/06 02:17:28;;;;;;;6.95;1.60;;;15.70;77.90;;;;;;4994197;28;20463;-65
2022/04/06 02:19:54;;;;;;;7.80;1.83;;;15.60;76.70;;;;;;4976134;28;20395;-65
2022/04/06 02:22:20;;;;;;;5.97;1.38;;;15.60;78.50;;;;;;4993700;28;20022;-66
2022/04/06 02:24:46;;;;;;;7.47;1.77;;;15.60;78.50;;;;;;4993709;28;20038;-67
2022/04/06 02:27:11;;;;;;;7.32;1.80;;;15.70;79.60;;;;;;4993367;28;20026;-66
2022/04/06 02:29:39;;;;;;;7.38;1.83;;;15.60;78.80;;;;;;4993752;28;20081;-66
2022/04/06 02:32:05;;;;;;;7.18;1.85;;;15.60;79.90;;;;;;4993670;28;20088;-66
2022/04/06 02:34:31;;;;;;;8.32;2.35;;;15.60;80.10;;;;;;4993359;28;20129;-65
2022/04/06 02:36:57;;;;;;;8.82;2.10;;;15.60;79.60;;;;;;4993442;28;20054;-66
2022/04/06 02:39:22;;;;;;;11.20;2.03;;;15.60;80.40;;;;;;4993762;28;20371;-66
2022/04/06 02:41:48;;;;;;;10.45;3.08;;;15.70;80.30;;;;;;4993287;28;20027;-66
2022/04/06 02:44:15;;;;;;;11.15;2.47;;;15.60;79.80;;;;;;4993364;28;20054;-65
2022/04/06 02:46:41;;;;;;;11.60;3.03;;;15.60;80.10;;;;;;4993794;28;20096;-66
2022/04/06 02:49:06;;;;;;;10.00;2.65;;;15.60;79.70;;;;;;4993256;28;20535;-65
2022/04/06 02:51:32;;;;;;;10.50;2.25;;;15.60;79.80;;;;;;4993707;28;20030;-66
2022/04/06 02:53:58;;;;;;;9.15;2.22;;;15.60;80.30;;;;;;4993305;28;20460;-66
2022/04/06 02:56:23;;;;;;;11.30;2.35;;;15.60;80.50;;;;;;4993210;28;20034;-66
2022/04/06 02:58:49;;;;;;;14.77;2.80;;;15.60;81.10;;;;;;4993400;28;20487;-65
2022/04/06 03:01:14;;;;;;;13.43;3.08;;;15.60;80.50;;;;;;4993583;28;20080;-65
2022/04/06 03:03:40;;;;;;;10.38;3.15;;;15.50;80.60;;;;;;4993200;28;20477;-66
2022/04/06 03:06:07;;;;;;;10.68;2.40;;;15.50;80.60;;;;;;4993509;28;20034;-66
2022/04/06 03:08:33;;;;;;;12.57;2.83;;;15.50;80.70;;;;;;4993507;28;20027;-65
2022/04/06 03:10:59;;;;;;;14.68;2.95;;;15.50;80.70;;;;;;4993004;28;20494;-66
2022/04/06 03:13:25;;;;;;;14.05;3.78;;;15.50;81.00;;;;;;4993365;28;20026;-64
2022/04/06 03:15:51;;;;;;;11.30;3.05;;;15.50;80.70;;;;;;4992940;28;20464;-65
2022/04/06 03:18:16;;;;;;;13.20;2.80;;;15.50;80.70;;;;;;4993005;28;20110;-64
2022/04/06 03:20:42;;;;;;;10.70;2.70;;;15.40;81.00;;;;;;4993321;28;20023;-66
2022/04/06 03:23:08;;;;;;;8.60;2.65;;;15.40;81.20;;;;;;4993199;28;20031;-66
2022/04/06 03:25:34;;;;;;;9.20;1.90;;;15.40;81.50;;;;;;4979602;28;20030;-66
2022/04/06 03:28:00;;;;;;;8.35;2.35;;;15.40;81.50;;;;;;4976206;28;20022;-59
2022/04/06 03:30:25;;;;;;;14.30;3.15;;;15.50;81.80;;;;;;4976071;28;20058;-55
2022/04/06 03:32:51;;;;;;;57.65;8.13;;;15.40;81.30;;;;;;4976459;28;20057;-64
2022/04/06 03:35:17;;;;;;;21.27;4.43;;;15.40;81.80;;;;;;4976958;28;20071;-56
2022/04/06 03:37:42;;;;;;;11.25;2.50;;;15.50;80.20;;;;;;4977425;28;20050;-61
2022/04/06 03:40:10;;;;;;;15.35;2.85;;;15.50;79.40;;;;;;4976935;28;20053;-61
2022/04/06 03:42:36;;;;;;;8.98;2.53;;;15.60;78.90;;;;;;4977235;28;20081;-56
2022/04/06 03:45:02;;;;;;;9.23;2.33;;;15.50;78.80;;;;;;4976761;28;20069;-54
2022/04/06 03:47:29;;;;;;;12.57;2.95;;;15.50;78.60;;;;;;4977342;28;20106;-58
2022/04/06 03:49:55;;;;;;;11.27;2.20;;;15.50;78.50;;;;;;4977019;28;20039;-64
2022/04/06 03:52:20;;;;;;;8.93;2.33;;;15.50;78.60;;;;;;4976747;28;20038;-57
2022/04/06 03:54:46;;;;;;;7.95;2.15;;;15.50;78.40;;;;;;4976597;28;20105;-64
2022/04/06 03:57:13;;;;;;;9.45;2.63;;;15.50;78.70;;;;;;4977044;28;20085;-57
2022/04/06 03:59:39;;;;;;;12.80;2.60;;;15.40;78.60;;;;;;4976942;28;20114;-65
2022/04/06 04:02:04;;;;;;;6.63;1.75;;;15.40;78.80;;;;;;4976746;28;20102;-59
2022/04/06 04:04:30;;;;;;;9.05;2.38;;;15.50;79.20;;;;;;4976923;28;20046;-66
2022/04/06 04:06:56;;;;;;;12.38;2.60;;;15.50;78.60;;;;;;4976672;28;20019;-61
2022/04/06 04:09:21;;;;;;;9.70;1.90;;;15.40;78.60;;;;;;4976449;28;20465;-65
2022/04/06 04:11:47;;;;;;;10.73;2.60;;;15.40;78.80;;;;;;4976688;28;20023;-55
2022/04/06 04:14:14;;;;;;;10.23;2.35;;;15.40;79.10;;;;;;4976385;28;20433;-64
2022/04/06 04:16:39;;;;;;;12.35;2.30;;;15.40;78.20;;;;;;4976419;28;20026;-56
2022/04/06 04:19:05;;;;;;;11.88;2.47;;;15.40;78.20;;;;;;4976335;28;20086;-64
2022/04/06 04:21:35;;;;;;;8.32;1.40;;;15.30;78.00;;;;;;4980247;28;20545;-52
2022/04/06 04:24:05;;;;;;;8.07;2.28;;;15.30;78.70;;;;;;4994396;28;20493;-62
2022/04/06 04:26:32;;;;;;;11.43;2.95;;;15.30;78.70;;;;;;4994167;28;20495;-54
2022/04/06 04:28:58;;;;;;;12.50;1.77;;;15.30;79.20;;;;;;4977212;28;20046;-65
2022/04/06 04:31:24;;;;;;;15.35;2.25;;;15.30;79.10;;;;;;4986049;28;20487;-55
2022/04/06 04:33:49;;;;;;;8.93;1.63;;;15.30;80.10;;;;;;4994040;28;20057;-66
2022/04/06 04:36:16;;;;;;;12.02;1.90;;;15.30;80.00;;;;;;4976640;28;20507;-64
2022/04/06 04:38:42;;;;;;;8.68;2.03;;;15.20;79.60;;;;;;4995394;28;20491;-62
2022/04/06 04:41:08;;;;;;;6.90;1.98;;;15.20;79.50;;;;;;4995386;28;20049;-66
2022/04/06 04:43:35;;;;;;;8.75;1.75;;;15.20;80.10;;;;;;4995478;28;20078;-67
2022/04/06 04:46:02;;;;;;;5.80;1.45;;;15.20;80.10;;;;;;4995420;28;20037;-66
2022/04/06 04:48:28;;;;;;;8.45;1.73;;;15.20;78.90;;;;;;4995401;28;20475;-67
2022/04/06 04:50:53;;;;;;;8.23;1.90;;;15.20;78.70;;;;;;4995150;28;20097;-54
2022/04/06 04:53:19;;;;;;;6.57;1.58;;;15.20;80.30;;;;;;4994784;28;20369;-63
2022/04/06 04:55:45;;;;;;;7.00;1.75;;;15.20;78.30;;;;;;4995285;28;20038;-56
2022/04/06 04:58:11;;;;;;;6.30;2.15;;;15.10;78.50;;;;;;4995028;28;20086;-55
2022/04/06 05:00:37;;;;;;;6.90;1.38;;;15.10;79.10;;;;;;4994373;28;20479;-62
2022/04/06 05:03:02;;;;;;;7.20;1.25;;;15.10;79.30;;;;;;4994020;28;20018;-66
2022/04/06 05:05:28;;;;;;;9.65;1.50;;;15.20;79.60;;;;;;4994103;28;20364;-62
2022/04/06 05:07:57;;;;;;;4.80;1.05;;;15.10;78.20;;;;;;4994589;28;20026;-67
2022/04/06 05:10:23;;;;;;;7.45;1.80;;;15.10;79.00;;;;;;4994023;28;20034;-64
2022/04/06 05:12:48;;;;;;;8.70;1.75;;;15.10;78.50;;;;;;4994788;28;20102;-66
2022/04/06 05:15:14;;;;;;;8.82;1.85;;;15.10;77.70;;;;;;4994760;28;20041;-64
2022/04/06 05:17:39;;;;;;;7.15;1.88;;;15.10;78.20;;;;;;4994586;28;20034;-59
2022/04/06 05:20:07;;;;;;;7.32;1.33;;;15.10;79.70;;;;;;4994528;28;20034;-64
2022/04/06 05:22:32;;;;;;;7.70;2.08;;;15.10;78.90;;;;;;4994260;28;20022;-61
2022/04/06 05:25:00;;;;;;;6.75;1.35;;;15.00;78.50;;;;;;4994755;28;20031;-54
2022/04/06 05:27:26;;;;;;;7.18;1.67;;;15.10;79.30;;;;;;4994307;28;20022;-63
2022/04/06 05:29:51;;;;;;;6.10;1.67;;;15.10;80.00;;;;;;4994787;28;20464;-61
2022/04/06 05:32:17;;;;;;;4.53;1.40;;;15.10;79.30;;;;;;4994783;28;20030;-56
2022/04/06 05:34:42;;;;;;;7.55;1.83;;;15.10;79.80;;;;;;4994558;28;20496;-67
2022/04/06 05:37:08;;;;;;;6.03;1.27;;;15.10;78.70;;;;;;4994338;28;20391;-66
2022/04/06 05:39:34;;;;;;;6.88;1.00;;;15.10;78.50;;;;;;4994521;28;20487;-66
2022/04/06 05:41:59;;;;;;;5.32;1.20;;;15.10;79.20;;;;;;4988277;28;20030;-64
2022/04/06 05:44:25;;;;;;;6.22;1.70;;;15.10;78.90;;;;;;4985741;28;20037;-65
2022/04/06 05:46:50;;;;;;;7.25;1.50;;;15.00;78.80;;;;;;4987235;28;20027;-64
2022/04/06 05:49:16;;;;;;;6.65;1.27;;;15.10;79.50;;;;;;4973937;28;20039;-65
2022/04/06 05:51:41;;;;;;;6.93;1.92;;;15.10;78.40;;;;;;4988040;28;20022;-65
2022/04/06 05:54:07;;;;;;;3.63;1.17;;;15.00;78.20;;;;;;4973565;28;20472;-65
2022/04/06 05:56:32;;;;;;;9.13;1.65;;;15.10;78.60;;;;;;4994027;28;20428;-65
2022/04/06 05:58:58;;;;;;;5.25;1.40;;;15.10;78.00;;;;;;4994174;28;20464;-64
2022/04/06 06:01:24;;;;;;;8.35;1.20;;;15.00;78.40;;;;;;4993952;28;20473;-60
2022/04/06 06:03:49;;;;;;;6.35;1.10;;;15.10;79.10;;;;;;4993973;28;20077;-65
2022/04/06 06:06:15;;;;;;;9.88;2.03;;;15.00;78.00;;;;;;4993726;28;20062;-63
2022/04/06 06:08:41;;;;;;;7.05;1.33;;;15.00;78.50;;;;;;4993945;28;20033;-60
2022/04/06 06:11:08;;;;;;;4.35;0.95;;;15.00;78.30;;;;;;4994086;28;20065;-53
2022/04/06 06:13:33;;;;;;;6.90;1.27;;;15.00;77.80;;;;;;4993867;28;20041;-65
2022/04/06 06:16:02;;;;;;;3.88;1.20;;;15.00;78.40;;;;;;4993640;28;20074;-65
2022/04/06 06:18:27;;;;;;;8.82;1.33;;;14.90;78.40;;;;;;4984915;28;20031;-59
2022/04/06 06:20:56;;;;;;;4.97;1.13;;;15.00;78.10;;;;;;4990704;28;20038;-52
2022/04/06 06:23:21;;;;;;;6.72;1.30;;;14.90;77.80;;;;;;4992594;28;20022;-53
2022/04/06 06:25:47;;;;;;;7.05;1.30;;;14.90;78.40;;;;;;4989672;28;20096;-61
2022/04/06 06:28:12;;;;;;;6.63;1.33;;;15.00;78.90;;;;;;4991130;28;20026;-63
2022/04/06 06:30:38;;;;;;;8.02;1.70;;;15.00;79.10;;;;;;4989212;28;20023;-56
2022/04/06 06:33:04;;;;;;;11.02;1.10;;;15.00;78.80;;;;;;4993217;28;20023;-52
2022/04/06 06:35:29;;;;;;;4.82;1.25;;;15.00;79.10;;;;;;4991296;28;20042;-60
2022/04/06 06:37:56;;;;;;;4.72;0.80;;;15.00;78.10;;;;;;4991578;28;20026;-63
2022/04/06 06:40:25;;;;;;;4.82;0.68;;;15.00;79.00;;;;;;4993439;28;20104;-58
2022/04/06 06:42:51;;;;;;;6.90;1.30;;;15.00;79.10;;;;;;4993759;28;20046;-63
2022/04/06 06:45:17;;;;;;;5.22;0.90;;;15.00;79.20;;;;;;4976116;28;20031;-64
2022/04/06 06:47:44;;;;;;;5.28;1.45;;;15.00;79.40;;;;;;4993634;28;20041;-64
2022/04/06 06:50:12;;;;;;;8.57;1.67;;;15.10;79.50;;;;;;4984122;28;20472;-63
2022/04/06 06:52:37;;;;;;;8.23;1.38;;;15.00;78.90;;;;;;4977199;28;20032;-64
2022/04/06 06:55:05;;;;;;;6.75;1.17;;;15.00;80.10;;;;;;4993171;28;20141;-64
2022/04/06 06:57:31;;;;;;;6.85;1.23;;;15.10;80.70;;;;;;4993368;28;20407;-64
2022/04/06 06:59:57;;;;;;;7.00;0.93;;;15.20;80.80;;;;;;4994742;28;20022;-63
2022/04/06 07:02:23;;;;;;;10.75;1.17;;;15.20;81.50;;;;;;4995922;28;20030;-53
2022/04/06 07:04:49;;;;;;;8.93;1.38;;;15.30;81.50;;;;;;4996164;28;20026;-52
2022/04/06 07:07:14;;;;;;;10.75;1.40;;;15.30;80.90;;;;;;4992736;28;20451;-64
2022/04/06 07:09:40;;;;;;;10.13;1.50;;;15.20;81.50;;;;;;4993896;28;20049;-57
2022/04/06 07:12:06;;;;;;;5.80;1.27;;;15.30;81.50;;;;;;4992650;28;20076;-57
2022/04/06 07:14:32;;;;;;;4.32;1.25;;;15.30;81.50;;;;;;4990094;28;20030;-66
2022/04/06 07:16:59;;;;;;;8.18;1.60;;;15.30;81.90;;;;;;4984546;28;20108;-63
2022/04/06 07:19:25;;;;;;;5.95;1.13;;;15.40;81.90;;;;;;4987662;28;20046;-55
2022/04/06 07:21:50;;;;;;;9.38;1.25;;;15.40;81.80;;;;;;4980163;28;20045;-66
2022/04/06 07:24:16;;;;;;;6.10;1.10;;;15.40;82.10;;;;;;4980027;28;20495;-65
2022/04/06 07:26:42;;;;;;;3.53;0.80;;;15.40;82.10;;;;;;4992619;28;20092;-66
2022/04/06 07:29:11;;;;;;;5.63;1.00;;;15.40;81.90;;;;;;4982393;28;20023;-64
2022/04/06 07:31:38;;;;;;;4.63;1.15;;;15.50;81.80;;;;;;4986947;28;20037;-63
2022/04/06 07:34:03;;;;;;;5.63;0.80;;;15.50;81.30;;;;;;4984579;28;20026;-65
2022/04/06 07:36:29;;;;;;;6.47;1.23;;;15.50;82.30;;;;;;4988124;28;20042;-65
2022/04/06 07:38:55;;;;;;;4.25;1.02;;;15.50;82.20;;;;;;4967875;28;20026;-66
2022/04/06 07:41:24;;;;;;;6.95;1.27;;;15.50;82.80;;;;;;4983129;28;20144;-61
2022/04/06 07:43:50;;;;;;;6.13;1.23;;;15.60;81.60;;;;;;4987302;28;20546;-59
2022/04/06 07:46:15;;;;;;;7.78;1.45;;;15.60;82.30;;;;;;4984270;28;20026;-58
2022/04/06 07:48:41;;;;;;;6.75;1.38;;;15.60;81.10;;;;;;4989366;28;20480;-62
2022/04/06 07:51:07;;;;;;;6.10;1.30;;;15.60;80.30;;;;;;5000269;28;20022;-65
2022/04/06 07:53:32;;;;;;;6.50;1.27;;;15.60;80.10;;;;;;4987518;28;20122;-62
2022/04/06 07:55:58;;;;;;;7.40;1.48;;;15.60;79.80;;;;;;4982819;28;20479;-64
2022/04/06 07:58:24;;;;;;;7.38;1.08;;;15.60;80.00;;;;;;4987717;28;20046;-63
2022/04/06 08:00:50;;;;;;;3.30;1.02;;;15.60;80.10;;;;;;4980832;28;20027;-58
2022/04/06 08:03:15;;;;;;;6.28;1.50;;;15.60;80.10;;;;;;4987983;28;20033;-65
2022/04/06 08:05:41;;;;;;;7.57;1.48;;;15.70;79.90;;;;;;4989516;28;20515;-58
2022/04/06 08:08:07;;;;;;;5.53;1.60;;;15.60;80.00;;;;;;4987106;28;20025;-59
2022/04/06 08:10:33;;;;;;;6.70;1.70;;;15.70;80.30;;;;;;4986290;28;20027;-61
2022/04/06 08:12:58;;;;;;;5.88;1.27;;;15.60;80.20;;;;;;4983143;28;20070;-54
2022/04/06 08:15:24;;;;;;;6.80;1.23;;;15.60;80.60;;;;;;4991034;28;20039;-62
2022/04/06 08:17:50;;;;;;;8.07;1.40;;;15.60;81.00;;;;;;4979964;28;20073;-63
2022/04/06 08:20:17;;;;;;;9.55;1.58;;;15.60;81.20;;;;;;4981424;28;20079;-58
2022/04/06 08:22:46;;;;;;;11.32;1.90;;;15.70;81.30;;;;;;4986810;28;20438;-62
2022/04/06 08:25:14;;;;;;;9.63;1.73;;;15.70;81.00;;;;;;4985788;28;20030;-55
2022/04/06 08:27:40;;;;;;;8.10;1.75;;;15.70;81.80;;;;;;4981227;28;20030;-64
2022/04/06 08:30:08;;;;;;;5.68;1.20;;;15.70;82.50;;;;;;4987232;28;20022;-63
2022/04/06 08:32:33;;;;;;;7.68;1.25;;;15.70;82.00;;;;;;4983944;28;20030;-65
2022/04/06 08:35:00;;;;;;;9.15;1.52;;;15.70;81.80;;;;;;4987043;28;20418;-55
2022/04/06 08:37:29;;;;;;;8.00;1.90;;;15.70;82.10;;;;;;4980770;28;20038;-64
2022/04/06 08:39:54;;;;;;;6.88;1.38;;;15.70;82.40;;;;;;4984235;28;20503;-65
2022/04/06 08:42:20;;;;;;;11.45;1.60;;;15.70;82.00;;;;;;4986515;28;20045;-54
2022/04/06 08:44:46;;;;;;;8.65;1.58;;;15.70;81.70;;;;;;4986202;28;20114;-61
2022/04/06 08:47:12;;;;;;;9.38;1.60;;;15.70;81.90;;;;;;4984757;28;20477;-63
2022/04/06 08:49:40;;;;;;;8.30;1.25;;;15.70;82.80;;;;;;4982230;28;20022;-54
2022/04/06 08:52:09;;;;;;;8.10;1.27;;;15.70;82.70;;;;;;4988313;28;20663;-60
2022/04/06 08:54:35;;;;;;;7.03;1.48;;;15.70;82.30;;;;;;4982691;28;20033;-60
2022/04/06 08:57:02;;;;;;;7.20;1.30;;;15.70;82.80;;;;;;4985419;28;20030;-66
2022/04/06 08:59:28;;;;;;;10.13;1.35;;;15.70;83.10;;;;;;4979180;28;20153;-66
2022/04/06 09:01:53;;;;;;;10.13;2.33;;;15.70;83.00;;;;;;4981385;28;20551;-63
2022/04/06 09:04:20;;;;;;;4.10;1.02;;;15.70;81.70;;;;;;4982454;28;20495;-61
2022/04/06 09:06:47;;;;;;;6.75;1.63;;;15.70;81.20;;;;;;4979770;28;20108;-64
2022/04/06 09:09:24;;;;;;;11.60;1.90;;;15.70;81.90;;;;;;4978459;28;20058;-64
2022/04/06 09:11:50;;;;;;;11.30;1.13;;;15.70;81.60;;;;;;4984057;28;20061;-51
2022/04/06 09:14:16;;;;;;;6.53;1.40;;;15.70;81.90;;;;;;4981671;28;20054;-65
2022/04/06 09:16:41;;;;;;;10.07;2.15;;;15.70;81.40;;;;;;4984132;28;20027;-62
2022/04/06 09:19:08;;;;;;;7.47;1.65;;;15.60;81.40;;;;;;4985782;28;20077;-63
2022/04/06 09:21:39;;;;;;;11.38;1.95;;;15.60;81.40;;;;;;4985542;28;20503;-55
2022/04/06 09:24:05;;;;;;;6.57;1.60;;;15.50;81.20;;;;;;4977271;28;20018;-57
2022/04/06 09:26:32;;;;;;;6.78;1.35;;;15.50;81.70;;;;;;4981558;28;20514;-53
2022/04/06 09:28:57;;;;;;;5.80;1.55;;;15.50;82.10;;;;;;4985509;28;20510;-59
2022/04/06 09:31:23;;;;;;;9.30;1.77;;;15.40;82.70;;;;;;4981691;28;20026;-49
2022/04/06 09:34:00;;;;;;;8.73;1.52;;;15.50;82.80;;;;;;4976583;28;20121;-61
2022/04/06 09:36:28;;;;;;;5.40;1.40;;;15.50;82.60;;;;;;4973135;28;20042;-52
2022/04/06 09:38:53;;;;;;;8.55;1.70;;;15.50;82.20;;;;;;4984063;28;20026;-64
2022/04/06 09:41:21;;;;;;;10.02;1.67;;;15.50;82.50;;;;;;4986065;28;20036;-62
2022/04/06 09:43:50;;;;;;;4.30;1.25;;;15.50;82.60;;;;;;4984533;28;20018;-59
2022/04/06 09:49:14;;;;;;;7.43;1.50;;;15.60;82.70;;;;;;4982283;28;20050;-54
2022/04/06 09:51:44;;;;;;;5.20;1.58;;;15.60;82.60;;;;;;4980322;28;20027;-59
2022/04/06 09:54:14;;;;;;;5.90;1.20;;;15.60;82.70;;;;;;4982094;28;20036;-50
2022/04/06 09:56:42;;;;;;;6.45;1.63;;;15.60;82.90;;;;;;4963183;28;20038;-62
2022/04/06 09:59:09;;;;;;;9.70;1.52;;;15.60;83.00;;;;;;4983162;28;20037;-60
2022/04/06 10:01:38;;;;;;;8.30;1.90;;;15.60;82.90;;;;;;4976511;28;20022;-56
2022/04/06 10:04:10;;;;;;;10.00;1.95;;;15.60;82.20;;;;;;4973692;28;20050;-65
2022/04/06 10:06:38;;;;;;;6.75;1.50;;;15.60;82.00;;;;;;4982143;28;20031;-59
2022/04/06 10:09:08;;;;;;;11.52;1.73;;;15.50;82.00;;;;;;4970762;28;20035;-61
2022/04/06 10:11:35;;;;;;;9.73;2.17;;;15.50;82.40;;;;;;4985114;28;20028;-64
2022/04/06 10:14:04;;;;;;;11.93;1.77;;;15.50;82.50;;;;;;4986043;28;20041;-58
2022/04/06 10:16:31;;;;;;;7.18;2.10;;;15.50;83.00;;;;;;4985530;28;20038;-57
2022/04/06 10:18:58;;;;;;;8.40;2.30;;;15.50;86.80;;;;;;4994651;28;20124;-53
2022/04/06 10:21:28;;;;;;;6.88;1.33;;;15.50;83.90;;;;;;4984914;28;20030;-64
2022/04/06 10:24:18;;;;;;;4.55;1.33;;;15.50;82.90;;;;;;4984605;28;20057;-59
2022/04/06 10:27:05;;;;;;;5.68;1.33;;;15.50;83.10;;;;;;4986280;28;20037;-54
2022/04/06 10:29:32;;;;;;;8.07;1.92;;;15.50;83.10;;;;;;4983579;28;20026;-53
2022/04/06 10:32:00;;;;;;;7.07;1.77;;;15.50;84.50;;;;;;4981026;28;20105;-54
2022/04/06 10:34:30;;;;;;;7.85;1.40;;;15.50;83.90;;;;;;4961010;28;20101;-54
2022/04/06 10:37:07;;;;;;;8.20;2.13;;;15.50;84.50;;;;;;4977578;28;20026;-57
2022/04/06 10:39:57;;;;;;;5.10;1.48;;;15.60;83.80;;;;;;4984136;28;20492;-65
2022/04/06 10:42:37;;;;;;;5.30;1.52;;;15.50;83.40;;;;;;4988748;28;20046;-61
2022/04/06 10:45:25;;;;;;;4.50;1.27;;;15.50;83.10;;;;;;4986785;28;20129;-66
2022/04/06 10:48:14;;;;;;;5.00;1.27;;;15.60;83.50;;;;;;4989889;28;20030;-59
2022/04/06 10:50:41;;;;;;;8.15;1.60;;;15.60;83.20;;;;;;4971757;28;20542;-60
2022/04/06 10:53:22;;;;;;;5.05;1.92;;;15.50;82.80;;;;;;4987900;28;20063;-62
2022/04/06 10:56:16;;;;;;;8.25;1.30;;;15.50;82.10;;;;;;4973969;28;20467;-57
2022/04/06 10:58:53;;;;;;;7.20;1.65;;;15.60;82.40;;;;;;4984293;28;20033;-61
2022/04/06 11:01:29;;;;;;;5.57;1.25;;;15.60;82.10;;;;;;4979957;28;20043;-65
2022/04/06 11:04:00;;;;;;;6.63;1.20;;;15.60;83.20;;;;;;4978730;28;20023;-57
2022/04/06 11:06:44;;;;;;;3.43;1.00;;;15.70;83.10;;;;;;4976261;28;20034;-60
2022/04/06 11:12:15;;;;;;;4.68;1.23;;;15.90;81.10;;;;;;4990634;28;20040;-63
2022/04/06 11:14:43;;;;;;;5.43;1.65;;;16.00;77.80;;;;;;4976185;28;20027;-58
2022/04/06 11:17:38;;;;;;;6.07;1.33;;;15.90;79.80;;;;;;4985648;28;20476;-59
2022/04/06 11:20:09;;;;;;;5.82;1.33;;;15.90;80.70;;;;;;4982371;28;20038;-60
2022/04/06 11:22:40;;;;;;;4.18;1.05;;;15.80;80.90;;;;;;4986661;28;20145;-60
2022/04/06 11:25:12;;;;;;;4.32;1.02;;;15.80;81.00;;;;;;4980909;28;20255;-62
2022/04/06 11:27:41;;;;;;;4.20;1.20;;;15.80;81.10;;;;;;4989960;28;20030;-62
2022/04/06 11:30:07;;;;;;;5.38;1.98;;;15.80;80.90;;;;;;4985144;28;20033;-60
2022/04/06 11:32:33;;;;;;;6.45;1.38;;;15.80;80.70;;;;;;4986734;28;20499;-63
2022/04/06 11:35:00;;;;;;;7.13;1.48;;;15.80;81.10;;;;;;4986506;28;20546;-59
2022/04/06 11:37:27;;;;;;;4.45;0.88;;;15.70;81.30;;;;;;5002910;28;20395;-57
2022/04/06 11:39:57;;;;;;;7.43;1.50;;;15.80;80.90;;;;;;4986140;28;20383;-59
2022/04/06 11:42:23;;;;;;;6.18;2.10;;;15.80;81.10;;;;;;4987760;28;20038;-56
2022/04/06 11:44:49;;;;;;;9.95;1.52;;;15.70;81.20;;;;;;4987850;28;20022;-60
2022/04/06 11:47:14;;;;;;;8.93;1.48;;;15.70;81.30;;;;;;4989634;28;20703;-66
2022/04/06 11:49:40;;;;;;;3.65;1.20;;;15.80;81.40;;;;;;4993155;28;20034;-63
2022/04/06 11:52:07;;;;;;;6.50;1.40;;;15.70;81.60;;;;;;4994386;28;20033;-62
2022/04/06 11:54:32;;;;;;;5.63;1.10;;;15.70;81.50;;;;;;4993580;28;20046;-64
2022/04/06 11:56:58;;;;;;;5.50;1.30;;;15.70;81.70;;;;;;4993364;28;20104;-59
2022/04/06 11:59:25;;;;;;;5.68;1.45;;;15.70;80.90;;;;;;4989178;28;20125;-60
2022/04/06 12:01:51;;;;;;;2.20;0.98;;;15.70;80.40;;;;;;4978538;28;20018;-59
2022/04/06 12:04:22;;;;;;;4.07;1.33;;;15.70;80.10;;;;;;4994897;28;20026;-60
2022/04/06 12:06:50;;;;;;;3.30;0.95;;;15.70;80.10;;;;;;4992815;28;20033;-61
2022/04/06 12:09:16;;;;;;;4.65;1.38;;;15.70;80.00;;;;;;4992787;28;20065;-58
2022/04/06 12:11:42;;;;;;;7.15;1.40;;;15.70;80.00;;;;;;4993907;28;20124;-56
2022/04/06 12:14:10;;;;;;;4.55;1.30;;;15.70;80.30;;;;;;4985380;28;20535;-59
2022/04/06 12:16:38;;;;;;;3.28;0.93;;;15.70;80.50;;;;;;4986506;28;20045;-61
2022/04/06 12:19:08;;;;;;;4.80;1.20;;;15.60;82.20;;;;;;4993429;28;20033;-62
2022/04/06 12:21:41;;;;;;;3.33;0.80;;;15.70;80.60;;;;;;4989440;28;20040;-59
2022/04/06 12:24:06;;;;;;;4.18;1.27;;;15.70;80.30;;;;;;4993997;28;20022;-63
2022/04/06 12:26:54;;;;;;;2.83;1.33;;;15.70;80.20;;;;;;4982280;28;20039;-66
2022/04/06 12:29:20;;;;;;;3.63;1.08;;;15.70;80.10;;;;;;4985881;28;20428;-66
2022/04/06 12:31:47;;;;;;;3.75;0.90;;;15.70;80.70;;;;;;4991203;28;20472;-58
2022/04/06 12:34:31;;;;;;;5.20;1.00;;;15.70;81.00;;;;;;4989114;28;20054;-63
2022/04/06 12:36:57;;;;;;;7.57;1.38;;;15.70;81.30;;;;;;4987533;28;20351;-58
2022/04/06 12:39:23;;;;;;;3.03;0.90;;;15.70;80.80;;;;;;4987723;28;20038;-66
2022/04/06 12:42:02;;;;;;;7.93;1.10;;;15.70;81.10;;;;;;4992616;28;20018;-57
2022/04/06 12:44:28;;;;;;;3.15;1.02;;;15.70;82.30;;;;;;4998046;28;20025;-55
2022/04/06 12:46:55;;;;;;;6.35;1.25;;;15.70;82.20;;;;;;4992489;28;20031;-65
2022/04/06 12:49:27;;;;;;;1.88;1.08;;;15.70;81.90;;;;;;4975488;28;20045;-66
2022/04/06 12:52:13;;;;;;;3.25;1.25;;;15.80;82.30;;;;;;4991217;28;20089;-66